sensor_id;sensor_type;location;lat;lon;timestamp;P1;durP1;ratioP1;P2;durP2;ratioP2
75537;SDS011;64121;48.666;8.114;2023-02-10T00:02:20;23.85;;;12.52;;
75537;SDS011;64121;48.666;8.114;2023-02-10T00:04:45;19.13;;;10.43;;
75537;SDS011;64121;48.666;8.114;2023-02-10T00:07:10;21.33;;;11.55;;
75537;SDS011;64121;48.666;8.114;2023-02-10T00:09:37;23.60;;;12.20;;
75537;SDS011;64121;48.666;8.114;2023-02-10T00:12:03;18.65;;;11.35;;
75537;SDS011;64121;48.666;8.114;2023-02-10T00:14:29;20.80;;;11.35;;
75537;SDS011;64121;48.666;8.114;2023-02-10T00:16:55;19.05;;;11.38;;
75537;SDS011;64121;48.666;8.114;2023-02-10T00:19:22;22.88;;;12.57;;
75537;SDS011;64121;48.666;8.114;2023-02-10T00:21:49;24.45;;;12.13;;
75537;SDS011;64121;48.666;8.114;2023-02-10T00:24:15;21.85;;;12.63;;
75537;SDS011;64121;48.666;8.114;2023-02-10T00:26:42;19.92;;;12.23;;
75537;SDS011;64121;48.666;8.114;2023-02-10T00:29:07;20.08;;;10.90;;
75537;SDS011;64121;48.666;8.114;2023-02-10T00:31:32;17.38;;;11.13;;
75537;SDS011;64121;48.666;8.114;2023-02-10T00:33:58;24.67;;;11.73;;
75537;SDS011;64121;48.666;8.114;2023-02-10T00:36:23;20.02;;;11.88;;
75537;SDS011;64121;48.666;8.114;2023-02-10T00:38:49;21.05;;;12.40;;
75537;SDS011;64121;48.666;8.114;2023-02-10T00:41:14;21.05;;;11.40;;
75537;SDS011;64121;48.666;8.114;2023-02-10T00:43:42;18.13;;;11.63;;
75537;SDS011;64121;48.666;8.114;2023-02-10T00:46:08;25.42;;;13.20;;
75537;SDS011;64121;48.666;8.114;2023-02-10T00:48:34;25.65;;;13.55;;
75537;SDS011;64121;48.666;8.114;2023-02-10T00:51:00;24.17;;;12.40;;
75537;SDS011;64121;48.666;8.114;2023-02-10T00:53:25;23.75;;;12.57;;
75537;SDS011;64121;48.666;8.114;2023-02-10T00:55:51;21.25;;;12.13;;
75537;SDS011;64121;48.666;8.114;2023-02-10T00:58:17;20.88;;;12.13;;
75537;SDS011;64121;48.666;8.114;2023-02-10T01:00:43;18.10;;;11.07;;
75537;SDS011;64121;48.666;8.114;2023-02-10T01:03:09;24.95;;;11.60;;
75537;SDS011;64121;48.666;8.114;2023-02-10T01:05:34;21.05;;;10.88;;
75537;SDS011;64121;48.666;8.114;2023-02-10T01:08:00;18.75;;;10.48;;
75537;SDS011;64121;48.666;8.114;2023-02-10T01:10:25;21.00;;;10.75;;
75537;SDS011;64121;48.666;8.114;2023-02-10T01:12:51;22.85;;;12.45;;
75537;SDS011;64121;48.666;8.114;2023-02-10T01:15:16;24.75;;;13.50;;
75537;SDS011;64121;48.666;8.114;2023-02-10T01:17:43;22.50;;;11.73;;
75537;SDS011;64121;48.666;8.114;2023-02-10T01:20:09;25.38;;;11.50;;
75537;SDS011;64121;48.666;8.114;2023-02-10T01:22:35;19.17;;;10.15;;
75537;SDS011;64121;48.666;8.114;2023-02-10T01:25:00;23.00;;;11.57;;
75537;SDS011;64121;48.666;8.114;2023-02-10T01:27:26;23.05;;;11.50;;
75537;SDS011;64121;48.666;8.114;2023-02-10T01:29:52;21.45;;;10.63;;
75537;SDS011;64121;48.666;8.114;2023-02-10T01:32:17;22.02;;;11.63;;
75537;SDS011;64121;48.666;8.114;2023-02-10T01:34:44;23.92;;;12.05;;
75537;SDS011;64121;48.666;8.114;2023-02-10T01:37:09;24.10;;;11.82;;
75537;SDS011;64121;48.666;8.114;2023-02-10T01:39:35;23.02;;;12.27;;
75537;SDS011;64121;48.666;8.114;2023-02-10T01:42:00;21.48;;;11.95;;
75537;SDS011;64121;48.666;8.114;2023-02-10T01:47:37;20.90;;;10.80;;
75537;SDS011;64121;48.666;8.114;2023-02-10T01:50:05;18.23;;;11.00;;
75537;SDS011;64121;48.666;8.114;2023-02-10T01:52:31;22.08;;;11.10;;
75537;SDS011;64121;48.666;8.114;2023-02-10T01:54:57;20.70;;;10.73;;
75537;SDS011;64121;48.666;8.114;2023-02-10T01:57:26;19.02;;;11.10;;
75537;SDS011;64121;48.666;8.114;2023-02-10T01:59:52;23.27;;;11.80;;
75537;SDS011;64121;48.666;8.114;2023-02-10T02:02:17;18.23;;;11.05;;
75537;SDS011;64121;48.666;8.114;2023-02-10T02:04:45;19.60;;;11.43;;
75537;SDS011;64121;48.666;8.114;2023-02-10T02:07:15;21.58;;;11.27;;
75537;SDS011;64121;48.666;8.114;2023-02-10T02:09:41;22.40;;;13.05;;
75537;SDS011;64121;48.666;8.114;2023-02-10T02:12:09;21.70;;;10.85;;
75537;SDS011;64121;48.666;8.114;2023-02-10T02:14:44;23.77;;;11.45;;
75537;SDS011;64121;48.666;8.114;2023-02-10T02:17:18;17.48;;;11.10;;
75537;SDS011;64121;48.666;8.114;2023-02-10T02:20:06;24.50;;;11.52;;
75537;SDS011;64121;48.666;8.114;2023-02-10T02:22:48;19.60;;;11.40;;
75537;SDS011;64121;48.666;8.114;2023-02-10T02:25:31;22.38;;;11.60;;
75537;SDS011;64121;48.666;8.114;2023-02-10T02:28:12;18.63;;;10.23;;
75537;SDS011;64121;48.666;8.114;2023-02-10T02:34:05;16.83;;;9.32;;
75537;SDS011;64121;48.666;8.114;2023-02-10T02:36:36;18.58;;;10.05;;
75537;SDS011;64121;48.666;8.114;2023-02-10T02:39:05;19.02;;;10.52;;
75537;SDS011;64121;48.666;8.114;2023-02-10T02:41:31;22.77;;;10.27;;
75537;SDS011;64121;48.666;8.114;2023-02-10T02:43:57;24.08;;;10.63;;
75537;SDS011;64121;48.666;8.114;2023-02-10T02:46:27;19.85;;;11.90;;
75537;SDS011;64121;48.666;8.114;2023-02-10T02:48:57;23.48;;;11.90;;
75537;SDS011;64121;48.666;8.114;2023-02-10T02:51:31;25.42;;;12.10;;
75537;SDS011;64121;48.666;8.114;2023-02-10T02:54:08;20.17;;;11.52;;
75537;SDS011;64121;48.666;8.114;2023-02-10T02:56:40;18.92;;;10.45;;
75537;SDS011;64121;48.666;8.114;2023-02-10T02:59:11;21.83;;;10.70;;
75537;SDS011;64121;48.666;8.114;2023-02-10T03:01:43;20.67;;;11.45;;
75537;SDS011;64121;48.666;8.114;2023-02-10T03:04:15;20.60;;;11.75;;
75537;SDS011;64121;48.666;8.114;2023-02-10T03:06:42;20.52;;;11.70;;
75537;SDS011;64121;48.666;8.114;2023-02-10T03:09:08;18.65;;;11.80;;
75537;SDS011;64121;48.666;8.114;2023-02-10T03:11:34;21.48;;;11.88;;
75537;SDS011;64121;48.666;8.114;2023-02-10T03:13:59;21.13;;;12.57;;
75537;SDS011;64121;48.666;8.114;2023-02-10T03:16:24;23.85;;;12.05;;
75537;SDS011;64121;48.666;8.114;2023-02-10T03:18:50;24.88;;;13.73;;
75537;SDS011;64121;48.666;8.114;2023-02-10T03:21:15;24.40;;;13.23;;
75537;SDS011;64121;48.666;8.114;2023-02-10T03:23:42;19.42;;;12.27;;
75537;SDS011;64121;48.666;8.114;2023-02-10T03:26:07;22.33;;;11.80;;
75537;SDS011;64121;48.666;8.114;2023-02-10T03:28:33;23.38;;;11.93;;
75537;SDS011;64121;48.666;8.114;2023-02-10T03:31:01;18.42;;;11.73;;
75537;SDS011;64121;48.666;8.114;2023-02-10T03:33:27;19.35;;;11.85;;
75537;SDS011;64121;48.666;8.114;2023-02-10T03:35:53;20.13;;;10.93;;
75537;SDS011;64121;48.666;8.114;2023-02-10T03:38:18;18.10;;;10.45;;
75537;SDS011;64121;48.666;8.114;2023-02-10T03:40:48;16.77;;;9.90;;
75537;SDS011;64121;48.666;8.114;2023-02-10T03:43:14;18.33;;;10.48;;
75537;SDS011;64121;48.666;8.114;2023-02-10T03:45:39;21.30;;;10.15;;
75537;SDS011;64121;48.666;8.114;2023-02-10T03:48:04;22.08;;;11.05;;
75537;SDS011;64121;48.666;8.114;2023-02-10T03:50:30;19.92;;;11.32;;
75537;SDS011;64121;48.666;8.114;2023-02-10T03:52:55;23.83;;;11.15;;
75537;SDS011;64121;48.666;8.114;2023-02-10T03:55:20;20.27;;;11.23;;
75537;SDS011;64121;48.666;8.114;2023-02-10T03:57:47;21.15;;;11.52;;
75537;SDS011;64121;48.666;8.114;2023-02-10T04:00:13;17.40;;;10.18;;
75537;SDS011;64121;48.666;8.114;2023-02-10T04:02:40;20.30;;;10.45;;
75537;SDS011;64121;48.666;8.114;2023-02-10T04:05:05;16.13;;;9.25;;
75537;SDS011;64121;48.666;8.114;2023-02-10T04:07:31;21.60;;;11.73;;
75537;SDS011;64121;48.666;8.114;2023-02-10T04:09:56;21.98;;;11.45;;
75537;SDS011;64121;48.666;8.114;2023-02-10T04:12:22;17.80;;;10.90;;
75537;SDS011;64121;48.666;8.114;2023-02-10T04:14:48;21.10;;;11.30;;
75537;SDS011;64121;48.666;8.114;2023-02-10T04:17:14;28.33;;;14.18;;
75537;SDS011;64121;48.666;8.114;2023-02-10T04:19:39;20.10;;;11.32;;
75537;SDS011;64121;48.666;8.114;2023-02-10T04:22:04;20.60;;;12.07;;
75537;SDS011;64121;48.666;8.114;2023-02-10T04:24:30;19.08;;;11.60;;
75537;SDS011;64121;48.666;8.114;2023-02-10T04:26:55;18.52;;;11.00;;
75537;SDS011;64121;48.666;8.114;2023-02-10T04:29:20;19.83;;;10.00;;
75537;SDS011;64121;48.666;8.114;2023-02-10T04:31:47;16.38;;;10.68;;
75537;SDS011;64121;48.666;8.114;2023-02-10T04:34:13;18.27;;;9.43;;
75537;SDS011;64121;48.666;8.114;2023-02-10T04:36:38;16.38;;;11.10;;
75537;SDS011;64121;48.666;8.114;2023-02-10T04:39:03;18.08;;;11.50;;
75537;SDS011;64121;48.666;8.114;2023-02-10T04:41:29;18.17;;;11.10;;
75537;SDS011;64121;48.666;8.114;2023-02-10T04:43:54;16.55;;;10.43;;
75537;SDS011;64121;48.666;8.114;2023-02-10T04:46:20;17.70;;;10.00;;
75537;SDS011;64121;48.666;8.114;2023-02-10T04:48:46;22.38;;;10.70;;
75537;SDS011;64121;48.666;8.114;2023-02-10T04:51:12;22.67;;;10.93;;
75537;SDS011;64121;48.666;8.114;2023-02-10T04:53:38;19.70;;;11.95;;
75537;SDS011;64121;48.666;8.114;2023-02-10T04:56:05;16.80;;;10.55;;
75537;SDS011;64121;48.666;8.114;2023-02-10T04:58:30;19.40;;;10.93;;
75537;SDS011;64121;48.666;8.114;2023-02-10T05:00:56;17.88;;;11.48;;
75537;SDS011;64121;48.666;8.114;2023-02-10T05:03:22;21.05;;;10.27;;
75537;SDS011;64121;48.666;8.114;2023-02-10T05:05:49;18.25;;;10.23;;
75537;SDS011;64121;48.666;8.114;2023-02-10T05:08:14;23.15;;;11.13;;
75537;SDS011;64121;48.666;8.114;2023-02-10T05:10:40;20.70;;;10.05;;
75537;SDS011;64121;48.666;8.114;2023-02-10T05:13:05;18.42;;;10.38;;
75537;SDS011;64121;48.666;8.114;2023-02-10T05:15:30;22.85;;;10.57;;
75537;SDS011;64121;48.666;8.114;2023-02-10T05:17:56;22.30;;;10.48;;
75537;SDS011;64121;48.666;8.114;2023-02-10T05:20:21;21.23;;;10.50;;
75537;SDS011;64121;48.666;8.114;2023-02-10T05:22:48;18.45;;;9.45;;
75537;SDS011;64121;48.666;8.114;2023-02-10T05:25:13;17.63;;;10.10;;
75537;SDS011;64121;48.666;8.114;2023-02-10T05:27:39;18.40;;;9.43;;
75537;SDS011;64121;48.666;8.114;2023-02-10T05:30:04;19.75;;;10.27;;
75537;SDS011;64121;48.666;8.114;2023-02-10T05:32:31;19.10;;;10.13;;
75537;SDS011;64121;48.666;8.114;2023-02-10T05:34:56;21.40;;;10.32;;
75537;SDS011;64121;48.666;8.114;2023-02-10T05:37:22;21.85;;;11.45;;
75537;SDS011;64121;48.666;8.114;2023-02-10T05:39:48;22.13;;;11.25;;
75537;SDS011;64121;48.666;8.114;2023-02-10T05:42:14;25.90;;;11.60;;
75537;SDS011;64121;48.666;8.114;2023-02-10T05:44:39;22.60;;;12.35;;
75537;SDS011;64121;48.666;8.114;2023-02-10T05:47:05;28.70;;;11.13;;
75537;SDS011;64121;48.666;8.114;2023-02-10T05:49:30;25.17;;;11.50;;
75537;SDS011;64121;48.666;8.114;2023-02-10T05:51:55;22.52;;;12.30;;
75537;SDS011;64121;48.666;8.114;2023-02-10T05:54:21;20.05;;;10.30;;
75537;SDS011;64121;48.666;8.114;2023-02-10T05:56:48;24.88;;;11.93;;
75537;SDS011;64121;48.666;8.114;2023-02-10T05:59:13;19.35;;;11.20;;
75537;SDS011;64121;48.666;8.114;2023-02-10T06:01:39;24.08;;;11.73;;
75537;SDS011;64121;48.666;8.114;2023-02-10T06:04:04;29.15;;;13.80;;
75537;SDS011;64121;48.666;8.114;2023-02-10T06:06:30;20.85;;;13.13;;
75537;SDS011;64121;48.666;8.114;2023-02-10T06:08:55;27.67;;;13.88;;
75537;SDS011;64121;48.666;8.114;2023-02-10T06:11:20;27.00;;;13.10;;
75537;SDS011;64121;48.666;8.114;2023-02-10T06:13:47;31.88;;;14.95;;
75537;SDS011;64121;48.666;8.114;2023-02-10T06:16:13;29.10;;;14.55;;
75537;SDS011;64121;48.666;8.114;2023-02-10T06:18:38;23.83;;;12.68;;
75537;SDS011;64121;48.666;8.114;2023-02-10T06:21:03;30.42;;;13.77;;
75537;SDS011;64121;48.666;8.114;2023-02-10T06:23:29;28.48;;;13.95;;
75537;SDS011;64121;48.666;8.114;2023-02-10T06:25:54;26.67;;;14.38;;
75537;SDS011;64121;48.666;8.114;2023-02-10T06:28:20;33.55;;;15.63;;
75537;SDS011;64121;48.666;8.114;2023-02-10T06:30:47;30.48;;;14.77;;
75537;SDS011;64121;48.666;8.114;2023-02-10T06:33:13;25.83;;;12.80;;
75537;SDS011;64121;48.666;8.114;2023-02-10T06:35:38;29.20;;;14.63;;
75537;SDS011;64121;48.666;8.114;2023-02-10T06:38:03;30.27;;;15.23;;
75537;SDS011;64121;48.666;8.114;2023-02-10T06:40:29;28.25;;;15.60;;
75537;SDS011;64121;48.666;8.114;2023-02-10T06:42:54;35.20;;;18.15;;
75537;SDS011;64121;48.666;8.114;2023-02-10T06:45:20;33.63;;;15.93;;
75537;SDS011;64121;48.666;8.114;2023-02-10T06:47:46;34.22;;;16.60;;
75537;SDS011;64121;48.666;8.114;2023-02-10T06:50:12;33.95;;;17.17;;
75537;SDS011;64121;48.666;8.114;2023-02-10T06:52:37;30.63;;;17.40;;
75537;SDS011;64121;48.666;8.114;2023-02-10T06:55:03;31.00;;;16.42;;
75537;SDS011;64121;48.666;8.114;2023-02-10T06:57:28;30.85;;;16.70;;
75537;SDS011;64121;48.666;8.114;2023-02-10T06:59:54;28.00;;;17.08;;
75537;SDS011;64121;48.666;8.114;2023-02-10T07:02:19;28.98;;;16.42;;
75537;SDS011;64121;48.666;8.114;2023-02-10T07:04:46;28.75;;;16.20;;
75537;SDS011;64121;48.666;8.114;2023-02-10T07:07:11;24.92;;;13.98;;
75537;SDS011;64121;48.666;8.114;2023-02-10T07:09:36;29.13;;;14.32;;
75537;SDS011;64121;48.666;8.114;2023-02-10T07:12:02;28.23;;;14.50;;
75537;SDS011;64121;48.666;8.114;2023-02-10T07:14:28;27.13;;;15.10;;
75537;SDS011;64121;48.666;8.114;2023-02-10T07:16:53;30.30;;;15.23;;
75537;SDS011;64121;48.666;8.114;2023-02-10T07:19:18;28.83;;;14.95;;
75537;SDS011;64121;48.666;8.114;2023-02-10T07:21:45;24.98;;;14.20;;
75537;SDS011;64121;48.666;8.114;2023-02-10T07:24:11;25.75;;;13.82;;
75537;SDS011;64121;48.666;8.114;2023-02-10T07:26:36;27.83;;;14.40;;
75537;SDS011;64121;48.666;8.114;2023-02-10T07:29:01;26.92;;;12.88;;
75537;SDS011;64121;48.666;8.114;2023-02-10T07:31:27;28.80;;;13.90;;
75537;SDS011;64121;48.666;8.114;2023-02-10T07:33:52;25.55;;;13.75;;
75537;SDS011;64121;48.666;8.114;2023-02-10T07:36:18;22.95;;;13.63;;
75537;SDS011;64121;48.666;8.114;2023-02-10T07:38:44;21.50;;;13.13;;
75537;SDS011;64121;48.666;8.114;2023-02-10T07:41:10;27.63;;;14.23;;
75537;SDS011;64121;48.666;8.114;2023-02-10T07:43:35;26.75;;;13.88;;
75537;SDS011;64121;48.666;8.114;2023-02-10T07:46:00;26.10;;;13.32;;
75537;SDS011;64121;48.666;8.114;2023-02-10T07:48:26;26.75;;;12.65;;
75537;SDS011;64121;48.666;8.114;2023-02-10T07:50:52;22.10;;;12.88;;
75537;SDS011;64121;48.666;8.114;2023-02-10T07:53:18;22.40;;;12.82;;
75537;SDS011;64121;48.666;8.114;2023-02-10T07:55:45;25.13;;;13.75;;
75537;SDS011;64121;48.666;8.114;2023-02-10T07:58:10;23.50;;;12.80;;
75537;SDS011;64121;48.666;8.114;2023-02-10T08:00:35;23.15;;;12.77;;
75537;SDS011;64121;48.666;8.114;2023-02-10T08:03:01;24.10;;;13.15;;
75537;SDS011;64121;48.666;8.114;2023-02-10T08:05:27;24.25;;;13.27;;
75537;SDS011;64121;48.666;8.114;2023-02-10T08:07:53;23.92;;;12.15;;
75537;SDS011;64121;48.666;8.114;2023-02-10T08:10:18;23.45;;;13.43;;
75537;SDS011;64121;48.666;8.114;2023-02-10T08:12:45;25.90;;;14.20;;
75537;SDS011;64121;48.666;8.114;2023-02-10T08:15:10;28.17;;;14.07;;
75537;SDS011;64121;48.666;8.114;2023-02-10T08:17:37;24.65;;;13.25;;
75537;SDS011;64121;48.666;8.114;2023-02-10T08:20:03;28.73;;;14.88;;
75537;SDS011;64121;48.666;8.114;2023-02-10T08:22:29;29.67;;;16.50;;
75537;SDS011;64121;48.666;8.114;2023-02-10T08:24:54;25.00;;;15.07;;
75537;SDS011;64121;48.666;8.114;2023-02-10T08:27:19;25.48;;;14.40;;
75537;SDS011;64121;48.666;8.114;2023-02-10T08:29:46;26.73;;;15.13;;
75537;SDS011;64121;48.666;8.114;2023-02-10T08:32:11;29.60;;;16.02;;
75537;SDS011;64121;48.666;8.114;2023-02-10T08:34:37;27.55;;;14.57;;
75537;SDS011;64121;48.666;8.114;2023-02-10T08:37:02;25.42;;;14.65;;
75537;SDS011;64121;48.666;8.114;2023-02-10T08:39:28;28.15;;;15.23;;
75537;SDS011;64121;48.666;8.114;2023-02-10T08:41:53;23.88;;;14.27;;
75537;SDS011;64121;48.666;8.114;2023-02-10T08:44:18;29.48;;;14.48;;
75537;SDS011;64121;48.666;8.114;2023-02-10T08:46:45;27.38;;;15.75;;
75537;SDS011;64121;48.666;8.114;2023-02-10T08:49:12;28.70;;;16.40;;
75537;SDS011;64121;48.666;8.114;2023-02-10T08:51:37;25.55;;;15.95;;
75537;SDS011;64121;48.666;8.114;2023-02-10T08:54:03;27.30;;;15.70;;
75537;SDS011;64121;48.666;8.114;2023-02-10T08:56:28;26.38;;;15.50;;
75537;SDS011;64121;48.666;8.114;2023-02-10T08:58:54;28.60;;;16.48;;
75537;SDS011;64121;48.666;8.114;2023-02-10T09:01:20;25.98;;;16.00;;
75537;SDS011;64121;48.666;8.114;2023-02-10T09:03:48;31.00;;;16.67;;
75537;SDS011;64121;48.666;8.114;2023-02-10T09:06:14;29.30;;;17.13;;
75537;SDS011;64121;48.666;8.114;2023-02-10T09:08:41;27.73;;;16.02;;
75537;SDS011;64121;48.666;8.114;2023-02-10T09:11:06;28.90;;;16.40;;
75537;SDS011;64121;48.666;8.114;2023-02-10T09:13:32;26.30;;;15.35;;
75537;SDS011;64121;48.666;8.114;2023-02-10T09:15:57;28.83;;;15.73;;
75537;SDS011;64121;48.666;8.114;2023-02-10T09:18:23;27.63;;;15.90;;
75537;SDS011;64121;48.666;8.114;2023-02-10T09:20:50;26.70;;;15.07;;
75537;SDS011;64121;48.666;8.114;2023-02-10T09:23:15;27.45;;;15.50;;
75537;SDS011;64121;48.666;8.114;2023-02-10T09:25:40;33.55;;;17.23;;
75537;SDS011;64121;48.666;8.114;2023-02-10T09:28:06;28.92;;;16.95;;
75537;SDS011;64121;48.666;8.114;2023-02-10T09:30:31;28.00;;;16.92;;
75537;SDS011;64121;48.666;8.114;2023-02-10T09:32:56;32.13;;;17.88;;
75537;SDS011;64121;48.666;8.114;2023-02-10T09:35:22;29.02;;;18.17;;
75537;SDS011;64121;48.666;8.114;2023-02-10T09:37:48;34.08;;;19.60;;
75537;SDS011;64121;48.666;8.114;2023-02-10T09:40:15;35.58;;;20.13;;
75537;SDS011;64121;48.666;8.114;2023-02-10T09:42:45;32.13;;;19.30;;
75537;SDS011;64121;48.666;8.114;2023-02-10T09:45:25;31.35;;;19.73;;
75537;SDS011;64121;48.666;8.114;2023-02-10T09:47:56;31.25;;;18.58;;
75537;SDS011;64121;48.666;8.114;2023-02-10T09:50:27;32.45;;;19.33;;
75537;SDS011;64121;48.666;8.114;2023-02-10T09:53:10;35.63;;;19.85;;
75537;SDS011;64121;48.666;8.114;2023-02-10T09:55:38;37.70;;;20.90;;
75537;SDS011;64121;48.666;8.114;2023-02-10T09:58:13;31.70;;;21.58;;
75537;SDS011;64121;48.666;8.114;2023-02-10T10:00:44;35.65;;;20.48;;
75537;SDS011;64121;48.666;8.114;2023-02-10T10:03:12;35.65;;;22.38;;
75537;SDS011;64121;48.666;8.114;2023-02-10T10:05:50;31.45;;;20.88;;
75537;SDS011;64121;48.666;8.114;2023-02-10T10:08:25;35.15;;;21.20;;
75537;SDS011;64121;48.666;8.114;2023-02-10T10:13:25;39.28;;;22.15;;
75537;SDS011;64121;48.666;8.114;2023-02-10T10:16:02;37.33;;;22.88;;
75537;SDS011;64121;48.666;8.114;2023-02-10T10:18:40;42.40;;;23.92;;
75537;SDS011;64121;48.666;8.114;2023-02-10T10:21:14;36.92;;;24.45;;
75537;SDS011;64121;48.666;8.114;2023-02-10T10:23:49;42.40;;;23.80;;
75537;SDS011;64121;48.666;8.114;2023-02-10T10:26:34;41.08;;;25.20;;
75537;SDS011;64121;48.666;8.114;2023-02-10T10:29:17;40.08;;;24.35;;
75537;SDS011;64121;48.666;8.114;2023-02-10T10:31:46;38.38;;;24.63;;
75537;SDS011;64121;48.666;8.114;2023-02-10T10:34:13;39.10;;;24.45;;
75537;SDS011;64121;48.666;8.114;2023-02-10T10:36:43;37.40;;;23.08;;
75537;SDS011;64121;48.666;8.114;2023-02-10T10:39:13;40.47;;;23.70;;
75537;SDS011;64121;48.666;8.114;2023-02-10T10:41:41;36.78;;;22.35;;
75537;SDS011;64121;48.666;8.114;2023-02-10T10:44:09;39.22;;;21.45;;
75537;SDS011;64121;48.666;8.114;2023-02-10T10:46:38;39.53;;;22.63;;
75537;SDS011;64121;48.666;8.114;2023-02-10T10:49:08;35.33;;;21.35;;
75537;SDS011;64121;48.666;8.114;2023-02-10T10:51:33;35.13;;;21.70;;
75537;SDS011;64121;48.666;8.114;2023-02-10T10:53:59;33.75;;;21.00;;
75537;SDS011;64121;48.666;8.114;2023-02-10T10:56:29;31.63;;;20.33;;
75537;SDS011;64121;48.666;8.114;2023-02-10T10:59:00;35.42;;;20.95;;
75537;SDS011;64121;48.666;8.114;2023-02-10T11:01:31;32.40;;;19.75;;
75537;SDS011;64121;48.666;8.114;2023-02-10T11:04:02;32.67;;;19.63;;
75537;SDS011;64121;48.666;8.114;2023-02-10T11:06:31;35.92;;;20.38;;
75537;SDS011;64121;48.666;8.114;2023-02-10T11:09:00;31.88;;;19.55;;
75537;SDS011;64121;48.666;8.114;2023-02-10T11:11:32;33.17;;;20.85;;
75537;SDS011;64121;48.666;8.114;2023-02-10T11:13:59;35.58;;;21.13;;
75537;SDS011;64121;48.666;8.114;2023-02-10T11:16:25;30.55;;;19.80;;
75537;SDS011;64121;48.666;8.114;2023-02-10T11:18:52;35.53;;;20.38;;
75537;SDS011;64121;48.666;8.114;2023-02-10T11:21:18;30.77;;;20.15;;
75537;SDS011;64121;48.666;8.114;2023-02-10T11:23:46;31.77;;;19.77;;
75537;SDS011;64121;48.666;8.114;2023-02-10T11:26:16;32.47;;;20.08;;
75537;SDS011;64121;48.666;8.114;2023-02-10T11:28:45;37.67;;;21.50;;
75537;SDS011;64121;48.666;8.114;2023-02-10T11:31:15;31.15;;;20.20;;
75537;SDS011;64121;48.666;8.114;2023-02-10T11:33:54;30.50;;;19.33;;
75537;SDS011;64121;48.666;8.114;2023-02-10T11:36:27;29.48;;;19.30;;
75537;SDS011;64121;48.666;8.114;2023-02-10T11:38:58;31.83;;;19.65;;
75537;SDS011;64121;48.666;8.114;2023-02-10T11:41:27;33.22;;;20.60;;
75537;SDS011;64121;48.666;8.114;2023-02-10T11:43:55;31.70;;;20.50;;
75537;SDS011;64121;48.666;8.114;2023-02-10T11:46:21;32.40;;;20.88;;
75537;SDS011;64121;48.666;8.114;2023-02-10T11:48:51;33.63;;;22.38;;
75537;SDS011;64121;48.666;8.114;2023-02-10T11:51:18;33.22;;;20.80;;
75537;SDS011;64121;48.666;8.114;2023-02-10T11:53:43;34.72;;;21.98;;
75537;SDS011;64121;48.666;8.114;2023-02-10T11:56:13;30.58;;;20.38;;
75537;SDS011;64121;48.666;8.114;2023-02-10T11:58:52;31.77;;;21.30;;
75537;SDS011;64121;48.666;8.114;2023-02-10T12:01:31;32.80;;;21.02;;
75537;SDS011;64121;48.666;8.114;2023-02-10T12:04:10;35.05;;;22.27;;
75537;SDS011;64121;48.666;8.114;2023-02-10T12:06:49;34.53;;;21.25;;
75537;SDS011;64121;48.666;8.114;2023-02-10T12:09:24;35.15;;;23.20;;
75537;SDS011;64121;48.666;8.114;2023-02-10T12:11:53;31.73;;;20.88;;
75537;SDS011;64121;48.666;8.114;2023-02-10T12:14:32;35.33;;;22.23;;
75537;SDS011;64121;48.666;8.114;2023-02-10T12:17:20;38.00;;;22.27;;
75537;SDS011;64121;48.666;8.114;2023-02-10T12:19:53;33.83;;;20.35;;
75537;SDS011;64121;48.666;8.114;2023-02-10T12:22:28;32.78;;;21.40;;
75537;SDS011;64121;48.666;8.114;2023-02-10T12:25:09;33.22;;;21.30;;
75537;SDS011;64121;48.666;8.114;2023-02-10T12:27:47;34.40;;;20.70;;
75537;SDS011;64121;48.666;8.114;2023-02-10T12:30:28;29.55;;;19.40;;
75537;SDS011;64121;48.666;8.114;2023-02-10T12:33:02;30.98;;;20.10;;
75537;SDS011;64121;48.666;8.114;2023-02-10T12:35:42;32.83;;;21.17;;
75537;SDS011;64121;48.666;8.114;2023-02-10T12:38:19;32.63;;;20.83;;
75537;SDS011;64121;48.666;8.114;2023-02-10T12:41:01;33.83;;;20.80;;
75537;SDS011;64121;48.666;8.114;2023-02-10T12:46:39;31.27;;;20.45;;
75537;SDS011;64121;48.666;8.114;2023-02-10T12:49:12;31.60;;;19.77;;
75537;SDS011;64121;48.666;8.114;2023-02-10T12:51:50;35.03;;;20.42;;
75537;SDS011;64121;48.666;8.114;2023-02-10T12:54:23;36.10;;;22.42;;
75537;SDS011;64121;48.666;8.114;2023-02-10T12:56:53;29.63;;;19.30;;
75537;SDS011;64121;48.666;8.114;2023-02-10T12:59:22;30.58;;;20.67;;
75537;SDS011;64121;48.666;8.114;2023-02-10T13:01:54;33.58;;;20.52;;
75537;SDS011;64121;48.666;8.114;2023-02-10T13:04:24;28.20;;;18.48;;
75537;SDS011;64121;48.666;8.114;2023-02-10T13:06:54;35.17;;;21.13;;
75537;SDS011;64121;48.666;8.114;2023-02-10T13:09:23;33.28;;;19.92;;
75537;SDS011;64121;48.666;8.114;2023-02-10T13:12:01;31.30;;;21.23;;
75537;SDS011;64121;48.666;8.114;2023-02-10T13:14:34;34.13;;;21.75;;
75537;SDS011;64121;48.666;8.114;2023-02-10T13:17:04;33.00;;;19.92;;
75537;SDS011;64121;48.666;8.114;2023-02-10T13:19:33;37.85;;;21.52;;
75537;SDS011;64121;48.666;8.114;2023-02-10T13:22:05;29.63;;;20.13;;
75537;SDS011;64121;48.666;8.114;2023-02-10T13:24:36;32.45;;;21.00;;
75537;SDS011;64121;48.666;8.114;2023-02-10T13:27:10;31.40;;;19.83;;
75537;SDS011;64121;48.666;8.114;2023-02-10T13:29:50;30.10;;;18.13;;
75537;SDS011;64121;48.666;8.114;2023-02-10T13:32:32;31.27;;;19.88;;
75537;SDS011;64121;48.666;8.114;2023-02-10T13:35:12;28.20;;;17.58;;
75537;SDS011;64121;48.666;8.114;2023-02-10T13:37:41;33.10;;;18.05;;
75537;SDS011;64121;48.666;8.114;2023-02-10T13:40:13;30.23;;;18.15;;
75537;SDS011;64121;48.666;8.114;2023-02-10T13:42:46;32.08;;;17.83;;
75537;SDS011;64121;48.666;8.114;2023-02-10T13:45:14;26.85;;;17.88;;
75537;SDS011;64121;48.666;8.114;2023-02-10T13:47:47;26.75;;;17.33;;
75537;SDS011;64121;48.666;8.114;2023-02-10T13:50:19;31.58;;;17.40;;
75537;SDS011;64121;48.666;8.114;2023-02-10T13:52:51;28.35;;;17.92;;
75537;SDS011;64121;48.666;8.114;2023-02-10T13:55:36;28.95;;;17.30;;
75537;SDS011;64121;48.666;8.114;2023-02-10T13:58:25;30.25;;;17.35;;
75537;SDS011;64121;48.666;8.114;2023-02-10T14:00:53;30.35;;;19.10;;
75537;SDS011;64121;48.666;8.114;2023-02-10T14:03:22;30.05;;;18.48;;
75537;SDS011;64121;48.666;8.114;2023-02-10T14:05:52;25.58;;;18.20;;
75537;SDS011;64121;48.666;8.114;2023-02-10T14:08:25;29.15;;;17.52;;
75537;SDS011;64121;48.666;8.114;2023-02-10T14:10:56;25.50;;;16.75;;
75537;SDS011;64121;48.666;8.114;2023-02-10T14:13:23;27.83;;;17.85;;
75537;SDS011;64121;48.666;8.114;2023-02-10T14:15:53;26.83;;;17.90;;
75537;SDS011;64121;48.666;8.114;2023-02-10T14:18:23;26.77;;;18.23;;
75537;SDS011;64121;48.666;8.114;2023-02-10T14:20:54;28.58;;;17.65;;
75537;SDS011;64121;48.666;8.114;2023-02-10T14:23:20;29.02;;;17.02;;
75537;SDS011;64121;48.666;8.114;2023-02-10T14:25:46;28.45;;;17.30;;
75537;SDS011;64121;48.666;8.114;2023-02-10T14:28:17;26.15;;;16.30;;
75537;SDS011;64121;48.666;8.114;2023-02-10T14:30:46;28.02;;;16.35;;
75537;SDS011;64121;48.666;8.114;2023-02-10T14:33:18;28.45;;;17.05;;
75537;SDS011;64121;48.666;8.114;2023-02-10T14:35:51;25.35;;;15.98;;
75537;SDS011;64121;48.666;8.114;2023-02-10T14:38:19;31.17;;;17.35;;
75537;SDS011;64121;48.666;8.114;2023-02-10T14:40:46;30.58;;;16.20;;